sensor_id;sensor_type;location;lat;lon;timestamp;P1;durP1;ratioP1;P2;durP2;ratioP2
1693;SDS011;71975;47.068;15.408;2023-10-19T00:00:40;19.00;;;16.83;;
1693;SDS011;71975;47.068;15.408;2023-10-19T00:05:46;20.00;;;17.90;;
1693;SDS011;71975;47.068;15.408;2023-10-19T00:10:50;20.63;;;18.63;;
1693;SDS011;71975;47.068;15.408;2023-10-19T00:16:05;21.80;;;19.70;;
1693;SDS011;71975;47.068;15.408;2023-10-19T00:21:14;21.03;;;18.93;;
1693;SDS011;71975;47.068;15.408;2023-10-19T00:26:25;19.70;;;17.80;;
1693;SDS011;71975;47.068;15.408;2023-10-19T00:31:32;20.53;;;18.40;;
1693;SDS011;71975;47.068;15.408;2023-10-19T00:36:41;20.03;;;17.93;;
1693;SDS011;71975;47.068;15.408;2023-10-19T00:41:47;20.33;;;17.90;;
1693;SDS011;71975;47.068;15.408;2023-10-19T00:46:52;19.97;;;17.97;;
1693;SDS011;71975;47.068;15.408;2023-10-19T00:52:02;17.87;;;16.13;;
1693;SDS011;71975;47.068;15.408;2023-10-19T00:57:12;18.77;;;16.77;;
1693;SDS011;71975;47.068;15.408;2023-10-19T01:02:17;19.20;;;17.27;;
1693;SDS011;71975;47.068;15.408;2023-10-19T01:07:21;19.07;;;15.93;;
1693;SDS011;71975;47.068;15.408;2023-10-19T01:12:29;21.00;;;18.73;;
1693;SDS011;71975;47.068;15.408;2023-10-19T01:17:43;19.63;;;17.57;;
1693;SDS011;71975;47.068;15.408;2023-10-19T01:22:54;21.17;;;18.87;;
1693;SDS011;71975;47.068;15.408;2023-10-19T01:28:21;19.57;;;17.47;;
1693;SDS011;71975;47.068;15.408;2023-10-19T01:33:27;19.27;;;17.20;;
1693;SDS011;71975;47.068;15.408;2023-10-19T01:38:33;20.70;;;18.60;;
1693;SDS011;71975;47.068;15.408;2023-10-19T01:43:37;20.67;;;18.57;;
1693;SDS011;71975;47.068;15.408;2023-10-19T01:48:42;19.70;;;17.70;;
1693;SDS011;71975;47.068;15.408;2023-10-19T01:53:47;19.30;;;17.37;;
1693;SDS011;71975;47.068;15.408;2023-10-19T01:58:50;20.50;;;18.30;;
1693;SDS011;71975;47.068;15.408;2023-10-19T02:03:54;22.77;;;18.90;;
1693;SDS011;71975;47.068;15.408;2023-10-19T02:09:02;20.33;;;17.47;;
1693;SDS011;71975;47.068;15.408;2023-10-19T02:14:19;18.00;;;16.30;;
1693;SDS011;71975;47.068;15.408;2023-10-19T02:19:23;19.20;;;17.20;;
1693;SDS011;71975;47.068;15.408;2023-10-19T02:24:28;17.33;;;15.57;;
1693;SDS011;71975;47.068;15.408;2023-10-19T02:29:31;19.80;;;17.37;;
1693;SDS011;71975;47.068;15.408;2023-10-19T02:34:37;21.30;;;19.10;;
1693;SDS011;71975;47.068;15.408;2023-10-19T02:39:42;22.17;;;19.87;;
1693;SDS011;71975;47.068;15.408;2023-10-19T02:44:46;21.83;;;18.77;;
1693;SDS011;71975;47.068;15.408;2023-10-19T02:49:51;19.93;;;17.83;;
1693;SDS011;71975;47.068;15.408;2023-10-19T02:54:58;19.07;;;17.17;;
1693;SDS011;71975;47.068;15.408;2023-10-19T03:00:06;21.20;;;17.13;;
1693;SDS011;71975;47.068;15.408;2023-10-19T03:05:14;19.60;;;17.30;;
1693;SDS011;71975;47.068;15.408;2023-10-19T03:10:20;20.67;;;18.57;;
1693;SDS011;71975;47.068;15.408;2023-10-19T03:15:35;18.90;;;16.90;;
1693;SDS011;71975;47.068;15.408;2023-10-19T03:20:44;21.80;;;18.20;;
1693;SDS011;71975;47.068;15.408;2023-10-19T03:25:53;19.70;;;17.67;;
1693;SDS011;71975;47.068;15.408;2023-10-19T03:31:14;18.43;;;16.40;;
1693;SDS011;71975;47.068;15.408;2023-10-19T03:36:21;21.33;;;17.50;;
1693;SDS011;71975;47.068;15.408;2023-10-19T03:41:25;17.40;;;15.60;;
1693;SDS011;71975;47.068;15.408;2023-10-19T03:46:30;20.70;;;18.47;;
1693;SDS011;71975;47.068;15.408;2023-10-19T03:51:33;19.77;;;17.50;;
1693;SDS011;71975;47.068;15.408;2023-10-19T03:56:52;28.93;;;18.13;;
1693;SDS011;71975;47.068;15.408;2023-10-19T04:01:57;20.43;;;18.07;;
1693;SDS011;71975;47.068;15.408;2023-10-19T04:07:01;19.70;;;16.63;;
1693;SDS011;71975;47.068;15.408;2023-10-19T04:12:13;21.43;;;17.90;;
1693;SDS011;71975;47.068;15.408;2023-10-19T04:17:18;24.70;;;22.40;;
1693;SDS011;71975;47.068;15.408;2023-10-19T04:22:25;18.53;;;16.60;;
1693;SDS011;71975;47.068;15.408;2023-10-19T04:27:29;18.90;;;17.10;;
1693;SDS011;71975;47.068;15.408;2023-10-19T04:32:36;19.83;;;16.67;;
1693;SDS011;71975;47.068;15.408;2023-10-19T04:37:41;17.97;;;16.27;;
1693;SDS011;71975;47.068;15.408;2023-10-19T04:42:47;22.10;;;18.23;;
1693;SDS011;71975;47.068;15.408;2023-10-19T04:47:51;21.60;;;17.40;;
1693;SDS011;71975;47.068;15.408;2023-10-19T04:52:56;19.63;;;16.90;;
1693;SDS011;71975;47.068;15.408;2023-10-19T04:58:01;18.00;;;16.10;;
1693;SDS011;71975;47.068;15.408;2023-10-19T05:03:04;21.40;;;17.57;;
1693;SDS011;71975;47.068;15.408;2023-10-19T05:08:08;23.37;;;17.73;;
1693;SDS011;71975;47.068;15.408;2023-10-19T05:13:12;20.00;;;17.90;;
1693;SDS011;71975;47.068;15.408;2023-10-19T05:18:15;19.73;;;17.33;;
1693;SDS011;71975;47.068;15.408;2023-10-19T05:23:18;19.77;;;17.80;;
1693;SDS011;71975;47.068;15.408;2023-10-19T05:28:22;20.60;;;18.37;;
1693;SDS011;71975;47.068;15.408;2023-10-19T05:33:26;22.63;;;19.37;;
1693;SDS011;71975;47.068;15.408;2023-10-19T05:38:31;20.43;;;17.80;;
1693;SDS011;71975;47.068;15.408;2023-10-19T05:43:35;19.63;;;16.50;;
1693;SDS011;71975;47.068;15.408;2023-10-19T05:48:38;21.30;;;17.80;;
1693;SDS011;71975;47.068;15.408;2023-10-19T05:53:41;22.87;;;20.60;;
1693;SDS011;71975;47.068;15.408;2023-10-19T05:58:47;23.77;;;19.07;;
1693;SDS011;71975;47.068;15.408;2023-10-19T06:03:52;20.40;;;18.40;;
1693;SDS011;71975;47.068;15.408;2023-10-19T06:08:55;24.13;;;20.73;;
1693;SDS011;71975;47.068;15.408;2023-10-19T06:14:00;24.63;;;22.03;;
1693;SDS011;71975;47.068;15.408;2023-10-19T06:19:03;28.60;;;21.53;;
1693;SDS011;71975;47.068;15.408;2023-10-19T06:24:07;27.70;;;24.90;;
1693;SDS011;71975;47.068;15.408;2023-10-19T06:29:17;22.33;;;20.10;;
1693;SDS011;71975;47.068;15.408;2023-10-19T06:34:20;19.80;;;17.67;;
1693;SDS011;71975;47.068;15.408;2023-10-19T06:39:23;21.83;;;18.83;;
1693;SDS011;71975;47.068;15.408;2023-10-19T06:44:27;19.13;;;17.10;;
1693;SDS011;71975;47.068;15.408;2023-10-19T06:49:31;19.83;;;17.93;;
1693;SDS011;71975;47.068;15.408;2023-10-19T06:54:34;17.00;;;15.20;;
1693;SDS011;71975;47.068;15.408;2023-10-19T06:59:38;17.77;;;15.97;;
1693;SDS011;71975;47.068;15.408;2023-10-19T07:04:41;17.37;;;15.50;;
1693;SDS011;71975;47.068;15.408;2023-10-19T07:09:44;17.70;;;15.17;;
1693;SDS011;71975;47.068;15.408;2023-10-19T07:14:49;16.57;;;15.07;;
1693;SDS011;71975;47.068;15.408;2023-10-19T07:19:52;16.20;;;14.57;;
1693;SDS011;71975;47.068;15.408;2023-10-19T07:24:55;17.00;;;15.50;;
1693;SDS011;71975;47.068;15.408;2023-10-19T07:30:00;19.23;;;17.47;;
1693;SDS011;71975;47.068;15.408;2023-10-19T07:35:07;23.07;;;20.87;;
1693;SDS011;71975;47.068;15.408;2023-10-19T07:40:10;16.73;;;15.23;;
1693;SDS011;71975;47.068;15.408;2023-10-19T07:45:16;16.87;;;15.43;;
1693;SDS011;71975;47.068;15.408;2023-10-19T07:50:19;17.80;;;16.30;;
1693;SDS011;71975;47.068;15.408;2023-10-19T07:55:24;16.20;;;14.80;;
1693;SDS011;71975;47.068;15.408;2023-10-19T08:00:28;14.40;;;13.10;;
1693;SDS011;71975;47.068;15.408;2023-10-19T08:05:32;15.57;;;14.37;;
1693;SDS011;71975;47.068;15.408;2023-10-19T08:10:36;14.70;;;13.50;;
1693;SDS011;71975;47.068;15.408;2023-10-19T08:15:40;15.70;;;14.50;;
1693;SDS011;71975;47.068;15.408;2023-10-19T08:20:43;14.13;;;13.03;;
1693;SDS011;71975;47.068;15.408;2023-10-19T08:25:46;15.37;;;13.93;;
1693;SDS011;71975;47.068;15.408;2023-10-19T08:30:59;14.47;;;13.30;;
1693;SDS011;71975;47.068;15.408;2023-10-19T08:36:03;15.20;;;13.90;;
1693;SDS011;71975;47.068;15.408;2023-10-19T08:41:06;15.57;;;14.17;;
1693;SDS011;71975;47.068;15.408;2023-10-19T08:46:12;17.13;;;15.50;;
1693;SDS011;71975;47.068;15.408;2023-10-19T08:51:16;15.37;;;14.07;;
1693;SDS011;71975;47.068;15.408;2023-10-19T08:56:20;17.70;;;14.77;;
1693;SDS011;71975;47.068;15.408;2023-10-19T09:01:26;16.93;;;13.73;;
1693;SDS011;71975;47.068;15.408;2023-10-19T09:06:30;14.03;;;12.73;;
1693;SDS011;71975;47.068;15.408;2023-10-19T09:11:33;15.43;;;14.13;;
1693;SDS011;71975;47.068;15.408;2023-10-19T09:16:38;16.63;;;14.93;;
1693;SDS011;71975;47.068;15.408;2023-10-19T09:21:56;22.90;;;19.77;;
1693;SDS011;71975;47.068;15.408;2023-10-19T09:27:01;16.73;;;15.03;;
1693;SDS011;71975;47.068;15.408;2023-10-19T09:32:06;16.70;;;15.20;;
1693;SDS011;71975;47.068;15.408;2023-10-19T09:37:10;16.37;;;14.73;;
1693;SDS011;71975;47.068;15.408;2023-10-19T09:42:14;17.20;;;15.40;;
1693;SDS011;71975;47.068;15.408;2023-10-19T09:47:21;11.03;;;9.93;;
1693;SDS011;71975;47.068;15.408;2023-10-19T09:52:29;11.70;;;10.60;;
1693;SDS011;71975;47.068;15.408;2023-10-19T09:57:34;12.30;;;9.90;;
1693;SDS011;71975;47.068;15.408;2023-10-19T10:02:45;12.70;;;11.50;;
1693;SDS011;71975;47.068;15.408;2023-10-19T10:08:02;9.63;;;8.83;;
1693;SDS011;71975;47.068;15.408;2023-10-19T10:13:38;10.60;;;8.87;;
1693;SDS011;71975;47.068;15.408;2023-10-19T10:18:42;11.53;;;9.50;;
1693;SDS011;71975;47.068;15.408;2023-10-19T10:23:47;9.90;;;9.03;;
1693;SDS011;71975;47.068;15.408;2023-10-19T10:29:10;9.03;;;8.23;;
1693;SDS011;71975;47.068;15.408;2023-10-19T10:39:52;9.00;;;8.30;;
1693;SDS011;71975;47.068;15.408;2023-10-19T10:45:01;9.93;;;8.97;;
1693;SDS011;71975;47.068;15.408;2023-10-19T10:50:08;9.80;;;8.90;;
1693;SDS011;71975;47.068;15.408;2023-10-19T10:55:12;11.10;;;10.10;;
1693;SDS011;71975;47.068;15.408;2023-10-19T11:00:16;9.60;;;8.60;;
1693;SDS011;71975;47.068;15.408;2023-10-19T11:05:23;9.87;;;8.87;;
1693;SDS011;71975;47.068;15.408;2023-10-19T11:10:26;7.87;;;7.03;;
1693;SDS011;71975;47.068;15.408;2023-10-19T11:15:30;9.03;;;8.23;;
1693;SDS011;71975;47.068;15.408;2023-10-19T11:20:35;7.60;;;6.90;;
1693;SDS011;71975;47.068;15.408;2023-10-19T11:25:38;8.67;;;7.90;;
1693;SDS011;71975;47.068;15.408;2023-10-19T11:30:41;8.67;;;7.83;;
1693;SDS011;71975;47.068;15.408;2023-10-19T11:35:45;10.30;;;9.20;;
1693;SDS011;71975;47.068;15.408;2023-10-19T11:40:48;10.50;;;9.40;;
1693;SDS011;71975;47.068;15.408;2023-10-19T11:45:51;8.63;;;7.13;;
1693;SDS011;71975;47.068;15.408;2023-10-19T11:50:56;8.23;;;7.53;;
1693;SDS011;71975;47.068;15.408;2023-10-19T11:55:59;7.73;;;6.93;;
1693;SDS011;71975;47.068;15.408;2023-10-19T12:01:04;10.43;;;9.00;;
1693;SDS011;71975;47.068;15.408;2023-10-19T12:06:12;8.90;;;8.07;;
1693;SDS011;71975;47.068;15.408;2023-10-19T12:11:21;9.33;;;8.53;;
1693;SDS011;71975;47.068;15.408;2023-10-19T12:16:25;9.13;;;8.33;;
1693;SDS011;71975;47.068;15.408;2023-10-19T12:21:30;7.87;;;6.87;;
1693;SDS011;71975;47.068;15.408;2023-10-19T12:26:33;7.00;;;6.30;;
1693;SDS011;71975;47.068;15.408;2023-10-19T12:31:36;7.20;;;6.50;;
1693;SDS011;71975;47.068;15.408;2023-10-19T12:36:43;6.83;;;6.17;;
1693;SDS011;71975;47.068;15.408;2023-10-19T12:41:48;8.07;;;7.30;;
1693;SDS011;71975;47.068;15.408;2023-10-19T12:46:51;7.90;;;7.13;;
1693;SDS011;71975;47.068;15.408;2023-10-19T12:51:56;8.77;;;7.07;;
1693;SDS011;71975;47.068;15.408;2023-10-19T12:56:59;8.03;;;7.37;;
1693;SDS011;71975;47.068;15.408;2023-10-19T13:02:02;9.60;;;7.30;;
1693;SDS011;71975;47.068;15.408;2023-10-19T13:07:07;8.57;;;7.77;;
1693;SDS011;71975;47.068;15.408;2023-10-19T13:12:12;8.17;;;6.93;;
1693;SDS011;71975;47.068;15.408;2023-10-19T13:17:15;7.20;;;6.60;;
1693;SDS011;71975;47.068;15.408;2023-10-19T13:22:19;8.43;;;7.73;;
1693;SDS011;71975;47.068;15.408;2023-10-19T13:27:23;8.73;;;7.93;;
1693;SDS011;71975;47.068;15.408;2023-10-19T13:32:28;11.03;;;9.33;;
1693;SDS011;71975;47.068;15.408;2023-10-19T13:37:33;8.53;;;7.80;;
1693;SDS011;71975;47.068;15.408;2023-10-19T13:42:35;8.13;;;7.50;;
1693;SDS011;71975;47.068;15.408;2023-10-19T13:47:39;8.30;;;7.60;;
1693;SDS011;71975;47.068;15.408;2023-10-19T13:52:44;8.73;;;7.93;;
1693;SDS011;71975;47.068;15.408;2023-10-19T13:57:46;8.33;;;7.57;;
1693;SDS011;71975;47.068;15.408;2023-10-19T14:02:50;10.00;;;8.40;;
1693;SDS011;71975;47.068;15.408;2023-10-19T14:07:55;9.43;;;8.50;;
1693;SDS011;71975;47.068;15.408;2023-10-19T14:12:58;9.80;;;8.50;;
1693;SDS011;71975;47.068;15.408;2023-10-19T14:18:01;15.10;;;12.23;;
1693;SDS011;71975;47.068;15.408;2023-10-19T14:23:06;15.17;;;10.40;;
1693;SDS011;71975;47.068;15.408;2023-10-19T14:28:09;11.87;;;10.67;;
1693;SDS011;71975;47.068;15.408;2023-10-19T14:33:13;11.10;;;9.50;;
1693;SDS011;71975;47.068;15.408;2023-10-19T14:38:18;11.13;;;7.80;;
1693;SDS011;71975;47.068;15.408;2023-10-19T14:43:21;9.30;;;7.60;;
1693;SDS011;71975;47.068;15.408;2023-10-19T14:48:24;10.07;;;9.07;;
1693;SDS011;71975;47.068;15.408;2023-10-19T14:53:29;11.70;;;10.60;;
1693;SDS011;71975;47.068;15.408;2023-10-19T14:58:32;13.40;;;12.07;;
1693;SDS011;71975;47.068;15.408;2023-10-19T16:47:35;10.10;;;9.20;;
1693;SDS011;71975;47.068;15.408;2023-10-19T16:52:43;10.40;;;9.47;;
1693;SDS011;71975;47.068;15.408;2023-10-19T16:57:50;10.13;;;9.10;;
1693;SDS011;71975;47.068;15.408;2023-10-19T17:02:59;9.67;;;8.80;;
1693;SDS011;71975;47.068;15.408;2023-10-19T17:08:05;11.47;;;9.93;;
1693;SDS011;71975;47.068;15.408;2023-10-19T17:13:12;13.60;;;11.60;;
1693;SDS011;71975;47.068;15.408;2023-10-19T17:18:20;11.90;;;9.97;;
1693;SDS011;71975;47.068;15.408;2023-10-19T17:23:28;11.07;;;10.10;;
1693;SDS011;71975;47.068;15.408;2023-10-19T17:28:34;13.80;;;10.90;;
1693;SDS011;71975;47.068;15.408;2023-10-19T17:33:41;9.63;;;8.83;;
1693;SDS011;71975;47.068;15.408;2023-10-19T17:38:47;11.33;;;9.70;;
1693;SDS011;71975;47.068;15.408;2023-10-19T17:43:53;11.87;;;8.87;;
1693;SDS011;71975;47.068;15.408;2023-10-19T17:49:00;13.27;;;10.87;;
1693;SDS011;71975;47.068;15.408;2023-10-19T17:54:07;10.33;;;9.33;;
1693;SDS011;71975;47.068;15.408;2023-10-19T17:59:14;13.70;;;11.50;;
1693;SDS011;71975;47.068;15.408;2023-10-19T18:04:22;12.20;;;9.60;;
1693;SDS011;71975;47.068;15.408;2023-10-19T18:09:28;13.10;;;10.70;;
1693;SDS011;71975;47.068;15.408;2023-10-19T18:14:36;11.10;;;10.10;;
1693;SDS011;71975;47.068;15.408;2023-10-19T18:19:49;13.27;;;11.93;;
1693;SDS011;71975;47.068;15.408;2023-10-19T18:24:58;13.63;;;12.30;;
1693;SDS011;71975;47.068;15.408;2023-10-19T18:30:07;10.87;;;9.87;;
1693;SDS011;71975;47.068;15.408;2023-10-19T18:35:19;10.53;;;9.53;;
1693;SDS011;71975;47.068;15.408;2023-10-19T18:40:25;10.47;;;9.47;;
1693;SDS011;71975;47.068;15.408;2023-10-19T18:45:35;21.77;;;19.47;;
1693;SDS011;71975;47.068;15.408;2023-10-19T18:50:45;16.83;;;13.17;;
1693;SDS011;71975;47.068;15.408;2023-10-19T18:56:01;12.33;;;11.23;;
1693;SDS011;71975;47.068;15.408;2023-10-19T19:01:09;12.07;;;10.80;;
1693;SDS011;71975;47.068;15.408;2023-10-19T19:06:17;11.13;;;9.63;;
1693;SDS011;71975;47.068;15.408;2023-10-19T19:11:25;12.30;;;11.10;;
1693;SDS011;71975;47.068;15.408;2023-10-19T19:16:32;15.57;;;14.07;;
1693;SDS011;71975;47.068;15.408;2023-10-19T19:21:42;14.47;;;12.70;;
1693;SDS011;71975;47.068;15.408;2023-10-19T19:26:48;12.93;;;11.67;;
1693;SDS011;71975;47.068;15.408;2023-10-19T19:31:54;13.97;;;12.77;;
1693;SDS011;71975;47.068;15.408;2023-10-19T19:37:03;13.57;;;12.27;;
1693;SDS011;71975;47.068;15.408;2023-10-19T19:42:11;14.80;;;11.27;;
1693;SDS011;71975;47.068;15.408;2023-10-19T19:47:22;14.27;;;12.87;;
1693;SDS011;71975;47.068;15.408;2023-10-19T19:52:30;16.03;;;12.90;;
1693;SDS011;71975;47.068;15.408;2023-10-19T19:57:40;12.20;;;11.00;;
1693;SDS011;71975;47.068;15.408;2023-10-19T20:02:46;14.53;;;11.63;;
1693;SDS011;71975;47.068;15.408;2023-10-19T20:07:53;13.33;;;12.03;;
1693;SDS011;71975;47.068;15.408;2023-10-19T20:12:58;13.27;;;12.07;;
1693;SDS011;71975;47.068;15.408;2023-10-19T20:18:02;13.80;;;12.30;;
1693;SDS011;71975;47.068;15.408;2023-10-19T20:23:07;11.23;;;10.20;;
1693;SDS011;71975;47.068;15.408;2023-10-19T20:28:11;11.53;;;10.50;;
1693;SDS011;71975;47.068;15.408;2023-10-19T20:33:14;11.23;;;10.23;;
1693;SDS011;71975;47.068;15.408;2023-10-19T20:38:19;11.43;;;10.40;;
1693;SDS011;71975;47.068;15.408;2023-10-19T20:43:22;11.40;;;10.40;;
1693;SDS011;71975;47.068;15.408;2023-10-19T20:48:25;11.40;;;9.17;;
1693;SDS011;71975;47.068;15.408;2023-10-19T20:53:30;12.10;;;10.83;;
1693;SDS011;71975;47.068;15.408;2023-10-19T20:58:33;12.20;;;10.90;;
1693;SDS011;71975;47.068;15.408;2023-10-19T21:03:36;10.47;;;9.53;;
1693;SDS011;71975;47.068;15.408;2023-10-19T21:08:41;9.87;;;8.97;;
1693;SDS011;71975;47.068;15.408;2023-10-19T21:13:44;11.67;;;10.47;;
1693;SDS011;71975;47.068;15.408;2023-10-19T21:18:47;11.00;;;10.00;;
1693;SDS011;71975;47.068;15.408;2023-10-19T21:23:51;12.33;;;10.20;;
1693;SDS011;71975;47.068;15.408;2023-10-19T21:28:55;13.17;;;12.03;;
1693;SDS011;71975;47.068;15.408;2023-10-19T21:34:00;11.50;;;10.40;;
1693;SDS011;71975;47.068;15.408;2023-10-19T21:39:05;12.73;;;11.33;;
1693;SDS011;71975;47.068;15.408;2023-10-19T21:44:09;13.07;;;11.53;;
1693;SDS011;71975;47.068;15.408;2023-10-19T21:49:12;10.07;;;9.13;;
1693;SDS011;71975;47.068;15.408;2023-10-19T21:54:17;10.23;;;9.33;;
1693;SDS011;71975;47.068;15.408;2023-10-19T21:59:20;11.20;;;10.20;;
1693;SDS011;71975;47.068;15.408;2023-10-19T22:04:23;10.53;;;9.53;;
1693;SDS011;71975;47.068;15.408;2023-10-19T22:09:28;9.60;;;8.60;;
1693;SDS011;71975;47.068;15.408;2023-10-19T22:14:32;12.30;;;8.00;;
1693;SDS011;71975;47.068;15.408;2023-10-19T22:19:35;10.07;;;9.20;;
1693;SDS011;71975;47.068;15.408;2023-10-19T22:24:39;9.70;;;8.70;;
1693;SDS011;71975;47.068;15.408;2023-10-19T22:29:45;10.77;;;9.90;;
1693;SDS011;71975;47.068;15.408;2023-10-19T22:34:48;10.30;;;9.10;;
1693;SDS011;71975;47.068;15.408;2023-10-19T22:39:52;11.50;;;10.30;;
1693;SDS011;71975;47.068;15.408;2023-10-19T22:44:56;11.70;;;10.60;;
1693;SDS011;71975;47.068;15.408;2023-10-19T22:49:59;9.37;;;8.40;;
1693;SDS011;71975;47.068;15.408;2023-10-19T22:55:03;9.60;;;8.67;;
1693;SDS011;71975;47.068;15.408;2023-10-19T23:00:08;11.50;;;8.60;;
1693;SDS011;71975;47.068;15.408;2023-10-19T23:05:16;9.90;;;9.00;;
1693;SDS011;71975;47.068;15.408;2023-10-19T23:10:20;10.13;;;8.90;;
1693;SDS011;71975;47.068;15.408;2023-10-19T23:15:29;10.30;;;9.10;;
1693;SDS011;71975;47.068;15.408;2023-10-19T23:20:39;9.07;;;8.17;;
1693;SDS011;71975;47.068;15.408;2023-10-19T23:25:45;10.33;;;9.43;;
1693;SDS011;71975;47.068;15.408;2023-10-19T23:30:53;9.90;;;8.97;;
1693;SDS011;71975;47.068;15.408;2023-10-19T23:36:00;11.40;;;9.77;;
1693;SDS011;71975;47.068;15.408;2023-10-19T23:41:05;9.53;;;8.70;;
1693;SDS011;71975;47.068;15.408;2023-10-19T23:46:08;9.57;;;8.77;;
1693;SDS011;71975;47.068;15.408;2023-10-19T23:51:11;10.53;;;9.47;;
1693;SDS011;71975;47.068;15.408;2023-10-19T23:56:15;9.83;;;8.80;;
